sensor_id;sensor_type;location;lat;lon;timestamp;temperature;humidity
27114;DHT22;14648;49.730;8.614;2023-02-19T00:01:42;11.50;59.60
27114;DHT22;14648;49.730;8.614;2023-02-19T00:04:16;11.40;59.60
27114;DHT22;14648;49.730;8.614;2023-02-19T00:06:43;11.40;59.70
27114;DHT22;14648;49.730;8.614;2023-02-19T00:09:11;11.40;59.70
27114;DHT22;14648;49.730;8.614;2023-02-19T00:11:38;11.40;59.80
27114;DHT22;14648;49.730;8.614;2023-02-19T00:14:05;11.40;59.90
27114;DHT22;14648;49.730;8.614;2023-02-19T00:16:39;11.40;60.00
27114;DHT22;14648;49.730;8.614;2023-02-19T00:19:09;11.30;60.20
27114;DHT22;14648;49.730;8.614;2023-02-19T00:21:37;11.30;60.20
27114;DHT22;14648;49.730;8.614;2023-02-19T00:24:04;11.30;60.20
27114;DHT22;14648;49.730;8.614;2023-02-19T00:26:33;11.30;60.30
27114;DHT22;14648;49.730;8.614;2023-02-19T00:29:00;11.30;60.30
27114;DHT22;14648;49.730;8.614;2023-02-19T00:31:35;11.30;60.50
27114;DHT22;14648;49.730;8.614;2023-02-19T00:34:03;11.30;60.50
27114;DHT22;14648;49.730;8.614;2023-02-19T00:36:31;11.20;60.40
27114;DHT22;14648;49.730;8.614;2023-02-19T00:38:59;11.30;60.60
27114;DHT22;14648;49.730;8.614;2023-02-19T00:41:25;11.30;60.60
27114;DHT22;14648;49.730;8.614;2023-02-19T00:43:55;11.30;60.70
27114;DHT22;14648;49.730;8.614;2023-02-19T00:46:27;11.20;60.70
27114;DHT22;14648;49.730;8.614;2023-02-19T00:48:55;11.30;60.80
27114;DHT22;14648;49.730;8.614;2023-02-19T00:51:30;11.20;60.80
27114;DHT22;14648;49.730;8.614;2023-02-19T00:53:57;11.30;61.00
27114;DHT22;14648;49.730;8.614;2023-02-19T00:56:23;11.30;60.90
27114;DHT22;14648;49.730;8.614;2023-02-19T00:58:49;11.20;60.90
27114;DHT22;14648;49.730;8.614;2023-02-19T01:01:16;11.20;60.90
27114;DHT22;14648;49.730;8.614;2023-02-19T01:03:42;11.20;61.10
27114;DHT22;14648;49.730;8.614;2023-02-19T01:06:09;11.30;61.30
27114;DHT22;14648;49.730;8.614;2023-02-19T01:08:36;11.20;61.10
27114;DHT22;14648;49.730;8.614;2023-02-19T01:11:03;11.20;61.20
27114;DHT22;14648;49.730;8.614;2023-02-19T01:13:30;11.20;61.30
27114;DHT22;14648;49.730;8.614;2023-02-19T01:16:07;11.20;61.30
27114;DHT22;14648;49.730;8.614;2023-02-19T01:18:35;11.20;61.40
27114;DHT22;14648;49.730;8.614;2023-02-19T01:21:10;11.20;61.40
27114;DHT22;14648;49.730;8.614;2023-02-19T01:23:37;11.20;61.60
27114;DHT22;14648;49.730;8.614;2023-02-19T01:26:08;11.20;61.60
27114;DHT22;14648;49.730;8.614;2023-02-19T01:28:36;11.10;61.80
27114;DHT22;14648;49.730;8.614;2023-02-19T01:31:03;11.10;62.00
27114;DHT22;14648;49.730;8.614;2023-02-19T01:33:31;11.10;62.10
27114;DHT22;14648;49.730;8.614;2023-02-19T01:35:57;11.00;62.10
27114;DHT22;14648;49.730;8.614;2023-02-19T01:38:23;11.00;62.20
27114;DHT22;14648;49.730;8.614;2023-02-19T01:40:56;10.90;62.40
27114;DHT22;14648;49.730;8.614;2023-02-19T01:43:34;10.90;62.70
27114;DHT22;14648;49.730;8.614;2023-02-19T01:46:52;11.00;62.70
27114;DHT22;14648;49.730;8.614;2023-02-19T01:49:37;10.90;62.70
27114;DHT22;14648;49.730;8.614;2023-02-19T01:52:12;10.90;62.90
27114;DHT22;14648;49.730;8.614;2023-02-19T01:54:43;10.90;62.90
27114;DHT22;14648;49.730;8.614;2023-02-19T01:57:14;10.90;62.90
27114;DHT22;14648;49.730;8.614;2023-02-19T01:59:42;10.90;63.00
27114;DHT22;14648;49.730;8.614;2023-02-19T02:02:08;10.90;63.10
27114;DHT22;14648;49.730;8.614;2023-02-19T02:04:34;11.00;63.20
27114;DHT22;14648;49.730;8.614;2023-02-19T02:07:02;11.00;63.20
27114;DHT22;14648;49.730;8.614;2023-02-19T02:09:49;10.90;63.20
27114;DHT22;14648;49.730;8.614;2023-02-19T02:12:34;10.90;63.20
27114;DHT22;14648;49.730;8.614;2023-02-19T02:14:59;11.00;63.30
27114;DHT22;14648;49.730;8.614;2023-02-19T02:17:30;10.90;63.50
27114;DHT22;14648;49.730;8.614;2023-02-19T02:28:59;10.90;63.80
27114;DHT22;14648;49.730;8.614;2023-02-19T02:31:55;10.90;63.90
27114;DHT22;14648;49.730;8.614;2023-02-19T02:34:55;10.90;63.80
27114;DHT22;14648;49.730;8.614;2023-02-19T02:37:24;10.90;63.90
27114;DHT22;14648;49.730;8.614;2023-02-19T02:39:53;10.90;63.90
27114;DHT22;14648;49.730;8.614;2023-02-19T02:42:20;10.80;63.90
27114;DHT22;14648;49.730;8.614;2023-02-19T02:44:53;10.80;63.90
27114;DHT22;14648;49.730;8.614;2023-02-19T02:47:44;10.90;64.00
27114;DHT22;14648;49.730;8.614;2023-02-19T02:50:22;10.80;63.90
27114;DHT22;14648;49.730;8.614;2023-02-19T02:52:58;10.80;64.10
27114;DHT22;14648;49.730;8.614;2023-02-19T02:55:48;10.80;64.10
27114;DHT22;14648;49.730;8.614;2023-02-19T02:58:16;10.80;64.10
27114;DHT22;14648;49.730;8.614;2023-02-19T03:00:44;10.80;64.10
27114;DHT22;14648;49.730;8.614;2023-02-19T03:03:34;10.90;64.30
27114;DHT22;14648;49.730;8.614;2023-02-19T03:06:03;10.90;64.30
27114;DHT22;14648;49.730;8.614;2023-02-19T03:08:41;10.90;64.30
27114;DHT22;14648;49.730;8.614;2023-02-19T03:11:18;10.80;64.30
27114;DHT22;14648;49.730;8.614;2023-02-19T03:17:01;10.80;64.30
27114;DHT22;14648;49.730;8.614;2023-02-19T03:19:55;10.80;64.30
27114;DHT22;14648;49.730;8.614;2023-02-19T03:22:26;10.80;64.30
27114;DHT22;14648;49.730;8.614;2023-02-19T03:25:09;10.80;64.30
27114;DHT22;14648;49.730;8.614;2023-02-19T03:27:58;10.80;64.40
27114;DHT22;14648;49.730;8.614;2023-02-19T03:30:29;10.80;64.40
27114;DHT22;14648;49.730;8.614;2023-02-19T03:33:12;10.80;64.50
27114;DHT22;14648;49.730;8.614;2023-02-19T03:35:49;10.80;64.50
27114;DHT22;14648;49.730;8.614;2023-02-19T03:38:19;10.80;64.50
27114;DHT22;14648;49.730;8.614;2023-02-19T03:41:08;10.80;64.50
27114;DHT22;14648;49.730;8.614;2023-02-19T03:44:04;10.80;64.60
27114;DHT22;14648;49.730;8.614;2023-02-19T03:49:24;10.80;64.60
27114;DHT22;14648;49.730;8.614;2023-02-19T03:52:09;10.80;64.70
27114;DHT22;14648;49.730;8.614;2023-02-19T03:55:02;10.80;64.80
27114;DHT22;14648;49.730;8.614;2023-02-19T03:57:50;10.70;64.80
27114;DHT22;14648;49.730;8.614;2023-02-19T04:00:29;10.70;64.70
27114;DHT22;14648;49.730;8.614;2023-02-19T04:05:47;10.70;64.90
27114;DHT22;14648;49.730;8.614;2023-02-19T04:08:18;10.70;64.80
27114;DHT22;14648;49.730;8.614;2023-02-19T04:10:46;10.70;64.70
27114;DHT22;14648;49.730;8.614;2023-02-19T04:13:23;10.70;64.80
27114;DHT22;14648;49.730;8.614;2023-02-19T04:15:54;10.70;65.00
27114;DHT22;14648;49.730;8.614;2023-02-19T04:18:25;10.80;64.90
27114;DHT22;14648;49.730;8.614;2023-02-19T04:20:56;10.70;64.90
27114;DHT22;14648;49.730;8.614;2023-02-19T04:23:25;10.70;65.00
27114;DHT22;14648;49.730;8.614;2023-02-19T04:25:56;10.70;65.00
27114;DHT22;14648;49.730;8.614;2023-02-19T04:28:23;10.70;65.10
27114;DHT22;14648;49.730;8.614;2023-02-19T04:30:49;10.70;65.10
27114;DHT22;14648;49.730;8.614;2023-02-19T04:33:15;10.70;65.10
27114;DHT22;14648;49.730;8.614;2023-02-19T04:35:42;10.80;65.00
27114;DHT22;14648;49.730;8.614;2023-02-19T04:38:08;10.80;65.20
27114;DHT22;14648;49.730;8.614;2023-02-19T04:40:34;10.80;65.10
27114;DHT22;14648;49.730;8.614;2023-02-19T04:43:00;10.80;65.20
27114;DHT22;14648;49.730;8.614;2023-02-19T04:45:25;10.80;65.10
27114;DHT22;14648;49.730;8.614;2023-02-19T04:47:51;10.80;65.30
27114;DHT22;14648;49.730;8.614;2023-02-19T04:50:17;10.80;65.30
27114;DHT22;14648;49.730;8.614;2023-02-19T04:52:42;10.80;65.30
27114;DHT22;14648;49.730;8.614;2023-02-19T04:55:08;10.80;65.40
27114;DHT22;14648;49.730;8.614;2023-02-19T04:57:34;10.90;65.50
27114;DHT22;14648;49.730;8.614;2023-02-19T05:00:00;10.90;65.60
27114;DHT22;14648;49.730;8.614;2023-02-19T05:02:26;10.90;65.60
27114;DHT22;14648;49.730;8.614;2023-02-19T05:04:52;10.90;65.50
27114;DHT22;14648;49.730;8.614;2023-02-19T05:07:17;10.90;65.60
27114;DHT22;14648;49.730;8.614;2023-02-19T05:09:43;10.90;65.50
27114;DHT22;14648;49.730;8.614;2023-02-19T05:12:09;10.90;65.50
27114;DHT22;14648;49.730;8.614;2023-02-19T05:14:34;10.90;65.60
27114;DHT22;14648;49.730;8.614;2023-02-19T05:17:00;10.90;65.60
27114;DHT22;14648;49.730;8.614;2023-02-19T05:19:26;10.90;65.60
27114;DHT22;14648;49.730;8.614;2023-02-19T05:21:51;10.90;65.60
27114;DHT22;14648;49.730;8.614;2023-02-19T05:24:17;10.90;65.60
27114;DHT22;14648;49.730;8.614;2023-02-19T05:26:47;10.90;65.60
27114;DHT22;14648;49.730;8.614;2023-02-19T05:29:13;10.90;66.40
27114;DHT22;14648;49.730;8.614;2023-02-19T05:31:38;10.90;65.60
27114;DHT22;14648;49.730;8.614;2023-02-19T05:34:06;10.90;65.60
27114;DHT22;14648;49.730;8.614;2023-02-19T05:36:31;10.90;65.60
27114;DHT22;14648;49.730;8.614;2023-02-19T05:38:57;10.90;65.60
27114;DHT22;14648;49.730;8.614;2023-02-19T05:41:25;10.90;65.60
27114;DHT22;14648;49.730;8.614;2023-02-19T05:43:53;10.90;65.60
27114;DHT22;14648;49.730;8.614;2023-02-19T05:46:21;10.80;65.60
27114;DHT22;14648;49.730;8.614;2023-02-19T05:48:50;10.90;65.70
27114;DHT22;14648;49.730;8.614;2023-02-19T05:51:19;10.90;65.70
27114;DHT22;14648;49.730;8.614;2023-02-19T05:53:47;10.80;65.60
27114;DHT22;14648;49.730;8.614;2023-02-19T05:56:29;10.80;65.50
27114;DHT22;14648;49.730;8.614;2023-02-19T05:59:00;10.80;65.60
27114;DHT22;14648;49.730;8.614;2023-02-19T06:01:30;10.80;65.50
27114;DHT22;14648;49.730;8.614;2023-02-19T06:03:56;10.80;65.60
27114;DHT22;14648;49.730;8.614;2023-02-19T06:06:23;10.80;65.60
27114;DHT22;14648;49.730;8.614;2023-02-19T06:08:52;10.80;65.80
27114;DHT22;14648;49.730;8.614;2023-02-19T06:11:18;10.80;66.00
27114;DHT22;14648;49.730;8.614;2023-02-19T06:13:44;10.80;66.00
27114;DHT22;14648;49.730;8.614;2023-02-19T06:16:11;10.70;66.30
27114;DHT22;14648;49.730;8.614;2023-02-19T06:18:37;10.60;66.30
27114;DHT22;14648;49.730;8.614;2023-02-19T06:21:06;10.60;66.50
27114;DHT22;14648;49.730;8.614;2023-02-19T06:23:33;10.60;66.70
27114;DHT22;14648;49.730;8.614;2023-02-19T06:26:13;10.50;66.80
27114;DHT22;14648;49.730;8.614;2023-02-19T06:28:42;10.50;67.20
27114;DHT22;14648;49.730;8.614;2023-02-19T06:31:09;10.50;67.10
27114;DHT22;14648;49.730;8.614;2023-02-19T06:33:36;10.50;67.20
27114;DHT22;14648;49.730;8.614;2023-02-19T06:36:10;10.40;67.20
27114;DHT22;14648;49.730;8.614;2023-02-19T06:38:37;10.40;67.40
27114;DHT22;14648;49.730;8.614;2023-02-19T06:41:05;10.40;67.40
27114;DHT22;14648;49.730;8.614;2023-02-19T06:43:33;10.40;67.50
27114;DHT22;14648;49.730;8.614;2023-02-19T06:46:02;10.40;67.60
27114;DHT22;14648;49.730;8.614;2023-02-19T06:48:30;10.40;67.70
27114;DHT22;14648;49.730;8.614;2023-02-19T06:50:57;10.40;67.70
27114;DHT22;14648;49.730;8.614;2023-02-19T06:53:24;10.30;67.70
27114;DHT22;14648;49.730;8.614;2023-02-19T06:56:02;10.40;67.90
27114;DHT22;14648;49.730;8.614;2023-02-19T06:58:30;10.40;68.00
27114;DHT22;14648;49.730;8.614;2023-02-19T07:00:58;10.30;67.90
27114;DHT22;14648;49.730;8.614;2023-02-19T07:03:23;10.30;67.90
27114;DHT22;14648;49.730;8.614;2023-02-19T07:05:50;10.30;68.00
27114;DHT22;14648;49.730;8.614;2023-02-19T07:08:16;10.30;68.10
27114;DHT22;14648;49.730;8.614;2023-02-19T07:10:43;10.30;68.10
27114;DHT22;14648;49.730;8.614;2023-02-19T07:13:09;10.30;68.20
27114;DHT22;14648;49.730;8.614;2023-02-19T07:15:35;10.30;68.30
27114;DHT22;14648;49.730;8.614;2023-02-19T07:18:01;10.30;68.40
27114;DHT22;14648;49.730;8.614;2023-02-19T07:20:26;10.30;68.50
27114;DHT22;14648;49.730;8.614;2023-02-19T07:22:52;10.30;68.50
27114;DHT22;14648;49.730;8.614;2023-02-19T07:25:19;10.30;68.50
27114;DHT22;14648;49.730;8.614;2023-02-19T07:27:45;10.30;68.50
27114;DHT22;14648;49.730;8.614;2023-02-19T07:30:10;10.30;68.60
27114;DHT22;14648;49.730;8.614;2023-02-19T07:32:40;10.30;68.60
27114;DHT22;14648;49.730;8.614;2023-02-19T07:35:06;10.40;68.70
27114;DHT22;14648;49.730;8.614;2023-02-19T07:37:32;10.40;68.70
27114;DHT22;14648;49.730;8.614;2023-02-19T07:39:58;10.40;68.70
27114;DHT22;14648;49.730;8.614;2023-02-19T07:42:23;10.40;68.70
27114;DHT22;14648;49.730;8.614;2023-02-19T07:44:49;10.40;68.70
27114;DHT22;14648;49.730;8.614;2023-02-19T07:47:15;10.50;68.80
27114;DHT22;14648;49.730;8.614;2023-02-19T07:49:40;10.50;68.70
27114;DHT22;14648;49.730;8.614;2023-02-19T07:52:08;10.50;68.80
27114;DHT22;14648;49.730;8.614;2023-02-19T07:54:35;10.50;68.70
27114;DHT22;14648;49.730;8.614;2023-02-19T07:57:01;10.60;68.60
27114;DHT22;14648;49.730;8.614;2023-02-19T07:59:31;10.60;68.50
27114;DHT22;14648;49.730;8.614;2023-02-19T08:01:58;10.60;68.50
27114;DHT22;14648;49.730;8.614;2023-02-19T08:04:48;10.70;68.40
27114;DHT22;14648;49.730;8.614;2023-02-19T08:07:15;10.70;68.30
27114;DHT22;14648;49.730;8.614;2023-02-19T08:09:48;10.70;68.30
27114;DHT22;14648;49.730;8.614;2023-02-19T08:12:34;10.80;68.20
27114;DHT22;14648;49.730;8.614;2023-02-19T08:15:18;10.80;68.10
27114;DHT22;14648;49.730;8.614;2023-02-19T08:17:44;10.90;68.20
27114;DHT22;14648;49.730;8.614;2023-02-19T08:20:10;10.90;68.10
27114;DHT22;14648;49.730;8.614;2023-02-19T08:22:36;11.00;68.00
27114;DHT22;14648;49.730;8.614;2023-02-19T08:25:03;11.10;68.00
27114;DHT22;14648;49.730;8.614;2023-02-19T08:27:34;11.10;67.90
27114;DHT22;14648;49.730;8.614;2023-02-19T08:30:00;11.10;67.90
27114;DHT22;14648;49.730;8.614;2023-02-19T08:32:25;11.20;67.80
27114;DHT22;14648;49.730;8.614;2023-02-19T08:34:51;11.20;67.60
27114;DHT22;14648;49.730;8.614;2023-02-19T08:37:17;11.20;67.40
27114;DHT22;14648;49.730;8.614;2023-02-19T08:39:44;11.20;67.30
27114;DHT22;14648;49.730;8.614;2023-02-19T08:42:09;11.30;67.30
27114;DHT22;14648;49.730;8.614;2023-02-19T08:44:35;11.30;67.20
27114;DHT22;14648;49.730;8.614;2023-02-19T08:47:00;11.20;67.00
27114;DHT22;14648;49.730;8.614;2023-02-19T08:49:26;11.30;67.00
27114;DHT22;14648;49.730;8.614;2023-02-19T08:51:52;11.30;66.80
27114;DHT22;14648;49.730;8.614;2023-02-19T08:54:19;11.30;66.80
27114;DHT22;14648;49.730;8.614;2023-02-19T08:56:44;11.30;66.80
27114;DHT22;14648;49.730;8.614;2023-02-19T08:59:11;11.30;66.70
27114;DHT22;14648;49.730;8.614;2023-02-19T09:01:37;11.30;66.60
27114;DHT22;14648;49.730;8.614;2023-02-19T09:04:03;11.40;66.50
27114;DHT22;14648;49.730;8.614;2023-02-19T09:06:29;11.40;66.40
27114;DHT22;14648;49.730;8.614;2023-02-19T09:08:55;11.30;66.40
27114;DHT22;14648;49.730;8.614;2023-02-19T09:11:21;11.40;66.40
27114;DHT22;14648;49.730;8.614;2023-02-19T09:13:47;11.40;66.30
27114;DHT22;14648;49.730;8.614;2023-02-19T09:16:19;11.40;66.40
27114;DHT22;14648;49.730;8.614;2023-02-19T09:18:45;11.40;66.40
27114;DHT22;14648;49.730;8.614;2023-02-19T09:21:11;11.40;66.30
27114;DHT22;14648;49.730;8.614;2023-02-19T09:23:37;11.40;66.30
27114;DHT22;14648;49.730;8.614;2023-02-19T09:26:04;11.40;66.80
27114;DHT22;14648;49.730;8.614;2023-02-19T09:28:34;11.40;66.20
27114;DHT22;14648;49.730;8.614;2023-02-19T09:31:11;11.50;66.20
27114;DHT22;14648;49.730;8.614;2023-02-19T09:33:46;11.60;66.00
27114;DHT22;14648;49.730;8.614;2023-02-19T09:36:23;11.50;65.80
27114;DHT22;14648;49.730;8.614;2023-02-19T09:38:49;11.60;65.70
27114;DHT22;14648;49.730;8.614;2023-02-19T09:41:34;11.60;65.60
27114;DHT22;14648;49.730;8.614;2023-02-19T09:44:03;11.70;65.50
27114;DHT22;14648;49.730;8.614;2023-02-19T09:46:39;11.70;65.40
27114;DHT22;14648;49.730;8.614;2023-02-19T09:49:17;11.70;66.00
27114;DHT22;14648;49.730;8.614;2023-02-19T09:52:10;11.70;65.20
27114;DHT22;14648;49.730;8.614;2023-02-19T09:54:46;11.80;65.10
27114;DHT22;14648;49.730;8.614;2023-02-19T09:57:20;11.80;65.20
27114;DHT22;14648;49.730;8.614;2023-02-19T10:00:19;11.90;65.30
27114;DHT22;14648;49.730;8.614;2023-02-19T10:02:50;12.00;65.20
27114;DHT22;14648;49.730;8.614;2023-02-19T10:05:26;12.10;65.20
27114;DHT22;14648;49.730;8.614;2023-02-19T10:07:53;12.10;65.20
27114;DHT22;14648;49.730;8.614;2023-02-19T10:10:34;12.30;65.00
27114;DHT22;14648;49.730;8.614;2023-02-19T10:16:04;12.40;64.60
27114;DHT22;14648;49.730;8.614;2023-02-19T10:18:43;12.50;64.50
27114;DHT22;14648;49.730;8.614;2023-02-19T10:21:18;12.60;64.30
27114;DHT22;14648;49.730;8.614;2023-02-19T10:23:50;12.60;64.00
27114;DHT22;14648;49.730;8.614;2023-02-19T10:26:22;12.60;63.80
27114;DHT22;14648;49.730;8.614;2023-02-19T10:28:54;12.60;63.60
27114;DHT22;14648;49.730;8.614;2023-02-19T10:31:24;12.60;63.30
27114;DHT22;14648;49.730;8.614;2023-02-19T10:34:16;12.60;63.30
27114;DHT22;14648;49.730;8.614;2023-02-19T10:36:48;12.70;63.10
27114;DHT22;14648;49.730;8.614;2023-02-19T10:41:50;12.90;62.60
27114;DHT22;14648;49.730;8.614;2023-02-19T10:44:26;12.90;62.50
27114;DHT22;14648;49.730;8.614;2023-02-19T10:46:55;12.90;62.20
27114;DHT22;14648;49.730;8.614;2023-02-19T10:49:38;13.00;62.10
27114;DHT22;14648;49.730;8.614;2023-02-19T10:52:33;13.00;61.80
27114;DHT22;14648;49.730;8.614;2023-02-19T10:57:57;12.90;61.10
27114;DHT22;14648;49.730;8.614;2023-02-19T11:00:27;12.90;61.30
27114;DHT22;14648;49.730;8.614;2023-02-19T11:03:22;13.00;61.20
27114;DHT22;14648;49.730;8.614;2023-02-19T11:06:00;13.00;60.90
27114;DHT22;14648;49.730;8.614;2023-02-19T11:08:28;13.10;60.60
27114;DHT22;14648;49.730;8.614;2023-02-19T11:10:55;13.10;60.40
27114;DHT22;14648;49.730;8.614;2023-02-19T11:13:29;13.20;60.00
27114;DHT22;14648;49.730;8.614;2023-02-19T11:15:59;13.20;59.50
27114;DHT22;14648;49.730;8.614;2023-02-19T11:18:30;13.20;59.50
27114;DHT22;14648;49.730;8.614;2023-02-19T11:21:05;13.20;59.00
27114;DHT22;14648;49.730;8.614;2023-02-19T11:23:37;13.30;59.00
27114;DHT22;14648;49.730;8.614;2023-02-19T11:26:22;13.30;58.60
27114;DHT22;14648;49.730;8.614;2023-02-19T11:29:00;13.20;58.40
27114;DHT22;14648;49.730;8.614;2023-02-19T11:31:36;13.20;58.40
27114;DHT22;14648;49.730;8.614;2023-02-19T11:37:12;13.20;58.20
27114;DHT22;14648;49.730;8.614;2023-02-19T11:39:42;13.20;57.70
27114;DHT22;14648;49.730;8.614;2023-02-19T11:45:44;13.20;57.50
27114;DHT22;14648;49.730;8.614;2023-02-19T11:54:54;13.30;56.70
27114;DHT22;14648;49.730;8.614;2023-02-19T12:00:27;13.50;56.50
27114;DHT22;14648;49.730;8.614;2023-02-19T12:06:37;13.70;55.80
27114;DHT22;14648;49.730;8.614;2023-02-19T12:09:42;13.70;55.70
27114;DHT22;14648;49.730;8.614;2023-02-19T12:18:55;13.60;55.80
27114;DHT22;14648;49.730;8.614;2023-02-19T12:21:43;13.50;55.90
27114;DHT22;14648;49.730;8.614;2023-02-19T12:28:10;13.70;55.50
27114;DHT22;14648;49.730;8.614;2023-02-19T12:33:49;13.80;55.10
27114;DHT22;14648;49.730;8.614;2023-02-19T12:36:42;14.00;54.90
27114;DHT22;14648;49.730;8.614;2023-02-19T12:43:08;14.20;55.00
27114;DHT22;14648;49.730;8.614;2023-02-19T12:51:41;14.10;54.90
27114;DHT22;14648;49.730;8.614;2023-02-19T12:54:16;14.00;54.60
27114;DHT22;14648;49.730;8.614;2023-02-19T12:56:59;13.90;54.60
27114;DHT22;14648;49.730;8.614;2023-02-19T12:59:41;13.80;54.50
27114;DHT22;14648;49.730;8.614;2023-02-19T13:02:35;13.90;54.70
27114;DHT22;14648;49.730;8.614;2023-02-19T13:05:29;13.90;54.40
27114;DHT22;14648;49.730;8.614;2023-02-19T13:08:30;14.00;54.60
27114;DHT22;14648;49.730;8.614;2023-02-19T13:11:16;14.10;54.70
27114;DHT22;14648;49.730;8.614;2023-02-19T13:13:55;14.30;54.50
27114;DHT22;14648;49.730;8.614;2023-02-19T13:16:32;14.30;54.50
27114;DHT22;14648;49.730;8.614;2023-02-19T13:19:03;14.40;54.30
27114;DHT22;14648;49.730;8.614;2023-02-19T13:21:35;14.40;54.10
27114;DHT22;14648;49.730;8.614;2023-02-19T13:24:31;14.30;53.90
27114;DHT22;14648;49.730;8.614;2023-02-19T13:29:59;14.30;53.80
27114;DHT22;14648;49.730;8.614;2023-02-19T13:38:32;14.40;52.80
27114;DHT22;14648;49.730;8.614;2023-02-19T13:41:01;14.40;52.80
27114;DHT22;14648;49.730;8.614;2023-02-19T13:43:34;14.40;52.70
27114;DHT22;14648;49.730;8.614;2023-02-19T13:46:06;14.40;52.20
27114;DHT22;14648;49.730;8.614;2023-02-19T13:48:37;14.30;52.00
27114;DHT22;14648;49.730;8.614;2023-02-19T13:53:57;14.20;51.40
27114;DHT22;14648;49.730;8.614;2023-02-19T14:02:13;14.20;51.20
27114;DHT22;14648;49.730;8.614;2023-02-19T14:05:09;14.20;50.80
27114;DHT22;14648;49.730;8.614;2023-02-19T14:07:53;14.20;50.90
27114;DHT22;14648;49.730;8.614;2023-02-19T14:11:01;14.20;50.90
27114;DHT22;14648;49.730;8.614;2023-02-19T14:16:30;14.10;50.80
27114;DHT22;14648;49.730;8.614;2023-02-19T14:19:02;14.00;50.60
27114;DHT22;14648;49.730;8.614;2023-02-19T14:21:39;14.00;51.00
27114;DHT22;14648;49.730;8.614;2023-02-19T14:24:13;13.90;50.70
27114;DHT22;14648;49.730;8.614;2023-02-19T14:26:39;13.90;50.70
27114;DHT22;14648;49.730;8.614;2023-02-19T14:29:07;13.80;50.80
27114;DHT22;14648;49.730;8.614;2023-02-19T14:31:43;13.80;50.80
27114;DHT22;14648;49.730;8.614;2023-02-19T14:34:18;13.80;50.60
27114;DHT22;14648;49.730;8.614;2023-02-19T14:36:55;13.80;50.80
27114;DHT22;14648;49.730;8.614;2023-02-19T14:39:30;13.80;50.80
27114;DHT22;14648;49.730;8.614;2023-02-19T14:42:00;13.70;50.80
27114;DHT22;14648;49.730;8.614;2023-02-19T14:44:33;13.80;51.00
27114;DHT22;14648;49.730;8.614;2023-02-19T14:47:22;13.80;51.00
27114;DHT22;14648;49.730;8.614;2023-02-19T14:49:52;13.70;50.80
27114;DHT22;14648;49.730;8.614;2023-02-19T14:52:50;13.70;50.90
27114;DHT22;14648;49.730;8.614;2023-02-19T14:55:28;13.70;50.90
27114;DHT22;14648;49.730;8.614;2023-02-19T14:58:10;13.70;50.90
27114;DHT22;14648;49.730;8.614;2023-02-19T15:00:40;13.60;50.70
27114;DHT22;14648;49.730;8.614;2023-02-19T15:06:21;13.50;50.90
27114;DHT22;14648;49.730;8.614;2023-02-19T15:09:02;13.50;51.10
27114;DHT22;14648;49.730;8.614;2023-02-19T15:11:30;13.40;51.00
27114;DHT22;14648;49.730;8.614;2023-02-19T15:14:01;13.40;51.00
27114;DHT22;14648;49.730;8.614;2023-02-19T15:16:36;13.40;51.10
27114;DHT22;14648;49.730;8.614;2023-02-19T15:19:05;13.40;51.20
27114;DHT22;14648;49.730;8.614;2023-02-19T15:21:34;13.40;51.30
27114;DHT22;14648;49.730;8.614;2023-02-19T15:24:05;13.40;51.50
27114;DHT22;14648;49.730;8.614;2023-02-19T15:26:40;13.30;51.60
27114;DHT22;14648;49.730;8.614;2023-02-19T15:29:13;13.30;51.70
27114;DHT22;14648;49.730;8.614;2023-02-19T15:34:23;13.30;51.80
27114;DHT22;14648;49.730;8.614;2023-02-19T15:37:02;13.30;51.80
27114;DHT22;14648;49.730;8.614;2023-02-19T15:39:43;13.20;51.80
27114;DHT22;14648;49.730;8.614;2023-02-19T15:42:16;13.20;51.80
27114;DHT22;14648;49.730;8.614;2023-02-19T15:47:36;13.10;52.00
27114;DHT22;14648;49.730;8.614;2023-02-19T15:50:21;13.20;52.70
27114;DHT22;14648;49.730;8.614;2023-02-19T15:53:13;13.10;52.10
27114;DHT22;14648;49.730;8.614;2023-02-19T15:56:32;13.10;52.20
27114;DHT22;14648;49.730;8.614;2023-02-19T15:59:05;13.00;52.00
27114;DHT22;14648;49.730;8.614;2023-02-19T16:01:39;13.00;52.10
27114;DHT22;14648;49.730;8.614;2023-02-19T16:04:14;13.00;52.20
27114;DHT22;14648;49.730;8.614;2023-02-19T16:06:51;13.00;52.40
27114;DHT22;14648;49.730;8.614;2023-02-19T16:09:30;12.90;52.50
27114;DHT22;14648;49.730;8.614;2023-02-19T16:12:02;12.80;52.70
27114;DHT22;14648;49.730;8.614;2023-02-19T16:14:31;12.70;53.10
27114;DHT22;14648;49.730;8.614;2023-02-19T16:19:47;12.50;54.30
27114;DHT22;14648;49.730;8.614;2023-02-19T16:22:25;12.40;54.60
27114;DHT22;14648;49.730;8.614;2023-02-19T16:24:55;12.40;54.90
27114;DHT22;14648;49.730;8.614;2023-02-19T16:27:48;12.30;55.20
27114;DHT22;14648;49.730;8.614;2023-02-19T16:30:53;12.30;55.70
27114;DHT22;14648;49.730;8.614;2023-02-19T16:33:30;12.20;55.80
27114;DHT22;14648;49.730;8.614;2023-02-19T16:46:54;12.00;56.80
27114;DHT22;14648;49.730;8.614;2023-02-19T16:49:22;11.90;56.90
27114;DHT22;14648;49.730;8.614;2023-02-19T16:51:49;11.90;56.90
27114;DHT22;14648;49.730;8.614;2023-02-19T16:54:15;11.80;57.10
27114;DHT22;14648;49.730;8.614;2023-02-19T16:56:46;11.80;57.20
27114;DHT22;14648;49.730;8.614;2023-02-19T16:59:12;11.80;57.40
27114;DHT22;14648;49.730;8.614;2023-02-19T17:01:42;11.80;57.30
27114;DHT22;14648;49.730;8.614;2023-02-19T17:04:10;11.80;57.50
27114;DHT22;14648;49.730;8.614;2023-02-19T17:06:40;11.80;57.50
27114;DHT22;14648;49.730;8.614;2023-02-19T17:09:08;11.80;57.50
27114;DHT22;14648;49.730;8.614;2023-02-19T17:11:34;11.70;57.50
27114;DHT22;14648;49.730;8.614;2023-02-19T17:14:00;11.70;57.50
27114;DHT22;14648;49.730;8.614;2023-02-19T17:16:29;11.70;57.50
27114;DHT22;14648;49.730;8.614;2023-02-19T17:18:58;11.70;57.50
27114;DHT22;14648;49.730;8.614;2023-02-19T17:21:32;11.70;57.50
27114;DHT22;14648;49.730;8.614;2023-02-19T17:23:58;11.70;57.60
27114;DHT22;14648;49.730;8.614;2023-02-19T17:26:32;11.70;57.40
27114;DHT22;14648;49.730;8.614;2023-02-19T17:29:00;11.70;57.50
27114;DHT22;14648;49.730;8.614;2023-02-19T17:31:29;11.60;57.30
27114;DHT22;14648;49.730;8.614;2023-02-19T17:33:59;11.60;57.40
27114;DHT22;14648;49.730;8.614;2023-02-19T17:36:28;11.60;57.40
27114;DHT22;14648;49.730;8.614;2023-02-19T17:39:00;11.60;57.40
27114;DHT22;14648;49.730;8.614;2023-02-19T17:41:29;11.60;57.40
27114;DHT22;14648;49.730;8.614;2023-02-19T17:43:55;11.60;57.30
27114;DHT22;14648;49.730;8.614;2023-02-19T17:46:25;11.50;57.30
27114;DHT22;14648;49.730;8.614;2023-02-19T17:48:54;11.60;57.40
27114;DHT22;14648;49.730;8.614;2023-02-19T17:51:20;11.60;57.40
27114;DHT22;14648;49.730;8.614;2023-02-19T17:53:46;11.60;57.40
27114;DHT22;14648;49.730;8.614;2023-02-19T17:56:18;11.50;57.40